Time;durP1;ratioP1;P1;durP2;ratioP2;P2;SDS_P1;SDS_P2;PMS_P1;PMS_P2;Temp;Humidity;BMP_temperature;BMP_pressure;BME280_temperature;BME280_humidity;BME280_pressure;Samples;Min_cycle;Max_cycle;Signal;HPM_P1;HPM_P2
2023/08/24 00:01:51;;;;;;;;;;;;;;;29.58;50.12;101297.47;5128426;27;20563;-80
2023/08/24 00:04:16;;;;;;;;;;;;;;;29.56;50.16;101279.59;5124937;27;20484;-80
2023/08/24 00:06:41;;;;;;;;;;;;;;;29.56;50.27;101283.16;5131595;27;19919;-80
2023/08/24 00:09:08;;;;;;;;;;;;;;;29.55;50.18;101285.88;5117337;27;20556;-80
2023/08/24 00:11:33;;;;;;;;;;;;;;;29.54;50.31;101273.34;5132350;27;19915;-80
2023/08/24 00:13:59;;;;;;;;;;;;;;;29.53;50.14;101279.66;5124903;27;19968;-80
2023/08/24 00:16:24;;;;;;;;;;;;;;;29.51;50.30;101282.38;5107116;27;19968;-80
2023/08/24 00:18:50;;;;;;;;;;;;;;;29.53;50.38;101282.34;5121519;27;19944;-81
2023/08/24 00:21:22;;;;;;;;;;;;;;;29.52;50.39;101278.75;5130695;27;19930;-80
2023/08/24 00:23:48;;;;;;;;;;;;;;;29.50;50.49;101285.06;5124841;27;19919;-81
2023/08/24 00:26:16;;;;;;;;;;;;;;;29.52;50.39;101283.25;5116198;27;20312;-80
2023/08/24 00:28:42;;;;;;;;;;;;;;;29.50;50.44;101283.25;5124599;27;19912;-80
2023/08/24 00:31:07;;;;;;;;;;;;;;;29.49;50.12;101294.06;5116428;27;19964;-80
2023/08/24 00:33:32;;;;;;;;;;;;;;;29.50;50.29;101288.66;5132309;27;19951;-80
2023/08/24 00:36:01;;;;;;;;;;;;;;;29.49;50.19;101284.19;5120389;27;20416;-80
2023/08/24 00:38:27;;;;;;;;;;;;;;;29.47;50.23;101290.53;5129344;27;19919;-80
2023/08/24 00:40:55;;;;;;;;;;;;;;;29.46;50.14;101284.22;5128335;27;19972;-80
2023/08/24 00:43:23;;;;;;;;;;;;;;;29.46;50.21;101283.34;5113408;28;20308;-80
2023/08/24 00:45:50;;;;;;;;;;;;;;;29.43;50.04;101289.66;5118417;27;19911;-81
2023/08/24 00:48:15;;;;;;;;;;;;;;;29.47;50.33;101290.53;5122043;27;19927;-81
2023/08/24 00:50:40;;;;;;;;;;;;;;;29.45;50.17;101290.53;5113355;27;19915;-81
2023/08/24 00:53:06;;;;;;;;;;;;;;;29.41;50.07;101297.75;5125139;27;20392;-81
2023/08/24 00:55:31;;;;;;;;;;;;;;;29.38;50.02;101292.44;5120437;27;20363;-81
2023/08/24 00:57:57;;;;;;;;;;;;;;;29.44;49.93;101288.75;5131620;27;19919;-81
2023/08/24 01:00:22;;;;;;;;;;;;;;;29.37;50.11;101290.66;5097926;28;20423;-81
2023/08/24 01:02:47;;;;;;;;;;;;;;;29.40;50.04;101289.69;5113247;27;20312;-81
2023/08/24 01:05:13;;;;;;;;;;;;;;;29.40;49.89;101285.22;5113138;28;19912;-81
2023/08/24 01:07:39;;;;;;;;;;;;;;;29.37;50.02;101289.75;5119462;27;20055;-80
2023/08/24 01:10:06;;;;;;;;;;;;;;;29.37;50.16;101279.88;5126672;27;20296;-80
2023/08/24 01:12:43;;;;;;;;;;;;;;;29.37;50.12;101270.94;5124608;27;22060;-80
2023/08/24 01:15:15;;;;;;;;;;;;;;;29.36;50.13;101279.94;5119670;27;20373;-81
2023/08/24 01:17:42;;;;;;;;;;;;;;;29.40;50.02;101281.63;5128839;27;20414;-81
2023/08/24 01:20:09;;;;;;;;;;;;;;;29.39;50.05;101272.66;5120480;27;20031;-81
2023/08/24 01:22:41;;;;;;;;;;;;;;;29.38;49.90;101273.59;5112981;28;19912;-81
2023/08/24 01:25:12;;;;;;;;;;;;;;;29.35;49.85;101276.31;5111752;28;19912;-81
2023/08/24 01:27:37;;;;;;;;;;;;;;;29.38;49.93;101278.06;5117775;27;20031;-81
2023/08/24 01:30:03;;;;;;;;;;;;;;;29.35;49.94;101278.13;5111805;27;19943;-81
2023/08/24 01:32:32;;;;;;;;;;;;;;;29.32;50.03;101283.56;5117704;27;19912;-80
2023/08/24 01:34:59;;;;;;;;;;;;;;;29.34;49.75;101276.38;5121279;27;19915;-80
2023/08/24 01:37:24;;;;;;;;;;;;;;;29.34;50.04;101279.06;5114819;27;19922;-80
2023/08/24 01:39:59;;;;;;;;;;;;;;;29.31;49.97;101279.09;5111178;27;19916;-80
2023/08/24 01:42:25;;;;;;;;;;;;;;;29.28;49.93;101276.47;5112261;28;20309;-81
2023/08/24 01:44:52;;;;;;;;;;;;;;;29.25;49.91;101276.50;5122756;27;19949;-81
2023/08/24 01:47:18;;;;;;;;;;;;;;;29.24;49.84;101275.63;5114939;27;19923;-81
2023/08/24 01:49:43;;;;;;;;;;;;;;;29.27;49.98;101267.47;5104737;27;19920;-80
2023/08/24 01:52:09;;;;;;;;;;;;;;;29.27;50.03;101266.59;5112468;28;20002;-81
2023/08/24 01:54:34;;;;;;;;;;;;;;;29.26;50.04;101271.09;5111301;27;20354;-80
2023/08/24 01:56:59;;;;;;;;;;;;;;;29.25;49.97;101255.84;5113790;28;19990;-81
2023/08/24 01:59:25;;;;;;;;;;;;;;;29.25;50.07;101258.53;5126008;27;20483;-80
2023/08/24 02:01:50;;;;;;;;;;;;;;;29.26;50.03;101254.97;5129338;27;20453;-81
2023/08/24 02:04:16;;;;;;;;;;;;;;;29.22;50.01;101254.09;5112953;27;19916;-81
2023/08/24 02:06:41;;;;;;;;;;;;;;;29.23;50.19;101257.69;5121342;27;20389;-80
2023/08/24 02:09:07;;;;;;;;;;;;;;;29.21;50.22;101251.44;5113518;28;20323;-80
2023/08/24 02:11:32;;;;;;;;;;;;;;;29.22;49.86;101246.03;5121951;27;20300;-81
2023/08/24 02:13:57;;;;;;;;;;;;;;;29.21;49.82;101256.81;5120489;28;20385;-81
2023/08/24 02:16:23;;;;;;;;;;;;;;;29.22;49.90;101253.22;5129546;28;20419;-79
2023/08/24 02:18:48;;;;;;;;;;;;;;;29.19;49.83;101256.84;5125263;28;19923;-81
2023/08/24 02:21:15;;;;;;;;;;;;;;;29.20;50.08;101255.06;5118996;28;19915;-80
2023/08/24 02:23:41;;;;;;;;;;;;;;;29.18;50.17;101255.06;5121927;28;19916;-80
2023/08/24 02:26:07;;;;;;;;;;;;;;;29.19;50.19;101254.16;5111094;28;19967;-81
2023/08/24 02:28:33;;;;;;;;;;;;;;;29.13;49.96;101253.38;5120205;28;19968;-81
2023/08/24 02:31:02;;;;;;;;;;;;;;;29.17;50.05;101257.81;5125804;28;19922;-80
2023/08/24 02:33:27;;;;;;;;;;;;;;;29.15;49.92;101251.56;5123625;28;19923;-80
2023/08/24 02:35:52;;;;;;;;;;;;;;;29.14;50.20;101253.34;5114738;28;19911;-81
2023/08/24 02:38:18;;;;;;;;;;;;;;;29.19;50.14;101247.91;5124494;27;20395;-81
2023/08/24 02:40:43;;;;;;;;;;;;;;;29.16;50.04;101253.31;5128076;28;20300;-81
2023/08/24 02:43:09;;;;;;;;;;;;;;;29.17;50.04;101250.63;5117427;27;20400;-81
2023/08/24 02:45:34;;;;;;;;;;;;;;;29.15;50.22;101248.88;5118627;27;19999;-81
2023/08/24 02:48:00;;;;;;;;;;;;;;;29.16;50.05;101245.25;5135124;27;20018;-80
2023/08/24 02:50:25;;;;;;;;;;;;;;;29.15;50.10;101246.19;5126495;27;20330;-81
2023/08/24 02:52:51;;;;;;;;;;;;;;;29.13;50.11;101242.63;5119332;27;19916;-81
2023/08/24 02:55:16;;;;;;;;;;;;;;;29.15;49.94;101243.50;5119399;27;20346;-81
2023/08/24 02:57:42;;;;;;;;;;;;;;;29.13;49.97;101242.63;5125695;27;20365;-81
2023/08/24 03:00:09;;;;;;;;;;;;;;;29.13;49.93;101245.31;5121427;27;19941;-80
2023/08/24 03:02:35;;;;;;;;;;;;;;;29.12;50.00;101243.50;5122706;27;19911;-80
2023/08/24 03:05:00;;;;;;;;;;;;;;;29.13;50.04;101240.81;5121172;27;19912;-81
2023/08/24 03:07:26;;;;;;;;;;;;;;;29.11;49.89;101239.06;5123361;27;19927;-81
2023/08/24 03:09:51;;;;;;;;;;;;;;;29.10;50.05;101238.16;5126179;27;20393;-80
2023/08/24 03:12:17;;;;;;;;;;;;;;;29.10;49.98;101238.16;5114716;28;20316;-80
2023/08/24 03:14:42;;;;;;;;;;;;;;;29.10;50.21;101243.53;5096835;28;19912;-80
2023/08/24 03:17:07;;;;;;;;;;;;;;;29.09;50.00;101243.53;5122397;27;19923;-80
2023/08/24 03:19:33;;;;;;;;;;;;;;;29.09;49.86;101240.84;5120268;27;20441;-79
2023/08/24 03:21:58;;;;;;;;;;;;;;;29.06;50.11;101240.88;5115393;28;20320;-80
2023/08/24 03:24:24;;;;;;;;;;;;;;;29.06;50.22;101235.50;5116148;27;19964;-80
2023/08/24 03:26:49;;;;;;;;;;;;;;;29.07;49.96;101245.38;5126365;27;20380;-80
2023/08/24 03:29:14;;;;;;;;;;;;;;;29.03;50.16;101250.78;5125777;27;19915;-81
2023/08/24 03:31:40;;;;;;;;;;;;;;;29.06;50.09;101244.47;5124840;27;20006;-81
2023/08/24 03:34:05;;;;;;;;;;;;;;;29.03;50.09;101247.19;5123292;27;20408;-81
2023/08/24 03:36:31;;;;;;;;;;;;;;;29.04;50.09;101251.66;5129008;27;20388;-81
2023/08/24 03:38:56;;;;;;;;;;;;;;;28.97;50.14;101239.22;5120876;27;19948;-81
2023/08/24 03:41:22;;;;;;;;;;;;;;;28.98;50.13;101246.41;5134380;27;19917;-80
2023/08/24 03:43:47;;;;;;;;;;;;;;;29.00;49.93;101258.03;5123083;27;19927;-81
2023/08/24 03:46:12;;;;;;;;;;;;;;;29.03;49.81;101258.84;5132892;27;20369;-82
2023/08/24 03:48:38;;;;;;;;;;;;;;;28.99;50.08;101270.56;5114441;27;20470;-81
2023/08/24 03:51:03;;;;;;;;;;;;;;;29.00;50.06;101261.59;5119046;27;20006;-81
2023/08/24 03:53:29;;;;;;;;;;;;;;;28.99;50.11;101262.47;5122719;27;20380;-81
2023/08/24 03:55:54;;;;;;;;;;;;;;;28.98;50.27;101266.09;5123704;27;19923;-81
2023/08/24 03:58:20;;;;;;;;;;;;;;;28.99;50.18;101269.66;5105876;27;19916;-81
2023/08/24 04:00:45;;;;;;;;;;;;;;;29.00;50.15;101271.47;5125280;27;20645;-81
2023/08/24 04:03:11;;;;;;;;;;;;;;;28.97;50.25;101268.81;5128248;27;19915;-82
2023/08/24 04:05:36;;;;;;;;;;;;;;;29.00;49.80;101271.47;5120614;27;19969;-82
2023/08/24 04:08:02;;;;;;;;;;;;;;;28.99;49.84;101285.81;5133982;27;19920;-82
2023/08/24 04:10:28;;;;;;;;;;;;;;;28.97;50.01;101274.19;5126284;27;20401;-82
2023/08/24 04:12:54;;;;;;;;;;;;;;;28.96;49.97;101272.41;5111602;27;19916;-81
2023/08/24 04:15:19;;;;;;;;;;;;;;;28.95;50.11;101271.50;5130319;27;20022;-81
2023/08/24 04:17:45;;;;;;;;;;;;;;;28.95;50.18;101268.81;5119764;27;19920;-81
2023/08/24 04:20:11;;;;;;;;;;;;;;;28.93;50.18;101273.31;5118879;27;20380;-81
2023/08/24 04:22:36;;;;;;;;;;;;;;;28.92;50.38;101273.38;5102467;27;19912;-81
2023/08/24 04:25:02;;;;;;;;;;;;;;;28.93;50.24;101267.94;5134547;27;20005;-82
2023/08/24 04:27:27;;;;;;;;;;;;;;;28.92;50.31;101273.38;5131463;27;20404;-83
2023/08/24 04:29:53;;;;;;;;;;;;;;;28.92;50.27;101271.56;5122706;27;19915;-80
2023/08/24 04:32:18;;;;;;;;;;;;;;;28.91;49.98;101274.25;5085589;28;20316;-81
2023/08/24 04:34:44;;;;;;;;;;;;;;;28.93;50.30;101275.13;5113863;28;19915;-82
2023/08/24 04:37:09;;;;;;;;;;;;;;;28.88;50.27;101272.50;5124691;27;20498;-81
2023/08/24 04:39:35;;;;;;;;;;;;;;;28.90;50.23;101270.69;5098925;28;19912;-81
2023/08/24 04:42:02;;;;;;;;;;;;;;;28.88;50.39;101267.13;5117379;27;20353;-80
2023/08/24 04:44:36;;;;;;;;;;;;;;;28.85;50.43;101264.50;5110816;27;20329;-82
2023/08/24 04:47:01;;;;;;;;;;;;;;;28.89;50.29;101273.41;5106793;28;19923;-81
2023/08/24 04:49:28;;;;;;;;;;;;;;;28.88;50.25;101267.13;5092873;28;19976;-81
2023/08/24 04:51:53;;;;;;;;;;;;;;;28.88;50.30;101266.25;5092193;28;19912;-83
2023/08/24 04:54:21;;;;;;;;;;;;;;;28.87;50.46;101259.09;5093223;28;19916;-83
2023/08/24 04:56:58;;;;;;;;;;;;;;;28.88;50.49;101252.81;5100005;28;20411;-83
2023/08/24 04:59:24;;;;;;;;;;;;;;;28.87;50.41;101251.94;5079326;28;19942;-82
2023/08/24 05:01:55;;;;;;;;;;;;;;;28.85;50.51;101251.06;5098310;28;19915;-82
2023/08/24 05:04:48;;;;;;;;;;;;;;;28.85;50.23;101251.06;5092092;28;19915;-82
2023/08/24 05:07:14;;;;;;;;;;;;;;;28.84;50.39;101257.34;5098809;28;20294;-84
2023/08/24 05:09:41;;;;;;;;;;;;;;;28.83;50.39;101260.94;5076241;28;19923;-83
2023/08/24 05:12:16;;;;;;;;;;;;;;;28.83;50.14;101269.00;5074797;28;20329;-83
2023/08/24 05:14:42;;;;;;;;;;;;;;;28.82;50.37;101265.41;5071874;28;20378;-83
2023/08/24 05:17:07;;;;;;;;;;;;;;;28.86;50.38;101270.75;5083936;28;19968;-83
2023/08/24 05:19:32;;;;;;;;;;;;;;;28.84;50.41;101281.53;5076244;28;19923;-82
2023/08/24 05:21:59;;;;;;;;;;;;;;;28.86;50.50;101278.84;5095781;28;19982;-84
2023/08/24 05:24:24;;;;;;;;;;;;;;;28.81;50.65;101286.97;5098962;28;19922;-83
2023/08/24 05:26:50;;;;;;;;;;;;;;;28.80;50.30;101291.44;5094961;28;19955;-86
2023/08/24 05:29:15;;;;;;;;;;;;;;;28.82;50.77;101294.97;5076265;28;20454;-83
2023/08/24 05:31:44;;;;;;;;;;;;;;;28.82;50.37;101288.72;5105878;28;19916;-83
2023/08/24 05:34:09;;;;;;;;;;;;;;;28.78;50.30;101298.63;5099217;28;19922;-82
2023/08/24 05:36:34;;;;;;;;;;;;;;;28.78;50.63;101287.00;5102249;28;19916;-83
2023/08/24 05:39:00;;;;;;;;;;;;;;;28.77;50.42;101288.78;5099685;28;19916;-83
2023/08/24 05:41:25;;;;;;;;;;;;;;;28.81;50.69;101295.03;5095839;28;19920;-83
2023/08/24 05:43:52;;;;;;;;;;;;;;;28.81;50.69;101289.66;5118824;27;19919;-83
2023/08/24 05:46:18;;;;;;;;;;;;;;;28.78;50.80;101295.94;5117347;27;19915;-82
2023/08/24 05:48:43;;;;;;;;;;;;;;;28.81;50.77;101289.66;5106687;27;19938;-82
2023/08/24 05:51:09;;;;;;;;;;;;;;;28.82;50.66;101297.66;5116447;27;19976;-84
2023/08/24 05:53:35;;;;;;;;;;;;;;;28.82;50.55;101294.97;5123121;27;19916;-85
2023/08/24 05:56:00;;;;;;;;;;;;;;;28.80;50.71;101296.81;5115554;27;19923;-84
2023/08/24 05:58:26;;;;;;;;;;;;;;;28.78;50.99;101300.44;5120188;27;19916;-83
2023/08/24 06:01:00;;;;;;;;;;;;;;;28.78;50.96;101297.75;5116891;27;20282;-84
2023/08/24 06:03:26;;;;;;;;;;;;;;;28.80;50.80;101299.50;5139982;27;19915;-83
2023/08/24 06:05:51;;;;;;;;;;;;;;;28.81;50.85;101305.78;5126786;27;20014;-84
2023/08/24 06:08:17;;;;;;;;;;;;;;;28.81;50.73;101303.09;5093999;27;19919;-81
2023/08/24 06:10:42;;;;;;;;;;;;;;;28.77;50.99;101310.28;5114184;27;20315;-82
2023/08/24 06:13:09;;;;;;;;;;;;;;;28.81;51.00;101311.16;5126179;27;19920;-82
2023/08/24 06:15:34;;;;;;;;;;;;;;;28.79;50.88;101312.97;5123982;27;20440;-83
2023/08/24 06:18:00;;;;;;;;;;;;;;;28.78;50.98;101309.38;5120848;27;19946;-83
2023/08/24 06:20:26;;;;;;;;;;;;;;;28.77;51.09;101309.41;5130056;27;19994;-81
2023/08/24 06:22:51;;;;;;;;;;;;;;;28.78;51.20;101309.38;5136642;27;20014;-82
2023/08/24 06:25:17;;;;;;;;;;;;;;;28.80;51.15;101314.75;5127297;27;19921;-82
2023/08/24 06:27:42;;;;;;;;;;;;;;;28.77;51.22;101307.59;5131940;27;19919;-83
2023/08/24 06:30:08;;;;;;;;;;;;;;;28.77;51.07;101315.69;5122010;27;19919;-83
2023/08/24 06:32:33;;;;;;;;;;;;;;;28.77;51.33;101323.75;5121930;27;20412;-83
2023/08/24 06:34:59;;;;;;;;;;;;;;;28.78;51.50;101330.88;5130666;27;20300;-83
2023/08/24 06:37:25;;;;;;;;;;;;;;;28.76;51.30;101331.81;5121697;27;19923;-84
2023/08/24 06:39:50;;;;;;;;;;;;;;;28.77;51.31;101336.28;5121094;27;20531;-83
2023/08/24 06:42:16;;;;;;;;;;;;;;;28.76;51.32;101332.69;5119772;27;19922;-84
2023/08/24 06:44:41;;;;;;;;;;;;;;;28.75;51.50;101333.63;5124355;27;20401;-82
2023/08/24 06:47:06;;;;;;;;;;;;;;;28.77;51.50;101341.66;5130005;27;19927;-84
2023/08/24 06:49:32;;;;;;;;;;;;;;;28.75;51.50;101335.44;5119297;27;20507;-82
2023/08/24 06:51:57;;;;;;;;;;;;;;;28.77;51.58;101341.66;5115730;27;20532;-83
2023/08/24 06:54:23;;;;;;;;;;;;;;;28.78;51.46;101340.75;5121939;27;19911;-81
2023/08/24 06:56:48;;;;;;;;;;;;;;;28.76;51.57;101343.44;5127775;27;20385;-83
2023/08/24 06:59:13;;;;;;;;;;;;;;;28.76;51.56;101345.25;5130793;27;19919;-84
2023/08/24 07:01:40;;;;;;;;;;;;;;;28.75;51.50;101344.38;5131314;27;19916;-82
2023/08/24 07:04:06;;;;;;;;;;;;;;;28.75;51.66;101354.25;5110513;27;20035;-82
2023/08/24 07:06:33;;;;;;;;;;;;;;;28.75;51.80;101347.06;5123417;27;20408;-82
2023/08/24 07:08:58;;;;;;;;;;;;;;;28.72;51.60;101359.63;5129509;27;19923;-81
2023/08/24 07:11:24;;;;;;;;;;;;;;;28.74;51.62;101363.19;5128843;27;19915;-82
2023/08/24 07:13:50;;;;;;;;;;;;;;;28.72;51.64;101355.13;5124858;27;19919;-82
2023/08/24 07:16:15;;;;;;;;;;;;;;;28.74;51.40;101357.81;5129576;27;19915;-82
2023/08/24 07:18:40;;;;;;;;;;;;;;;28.75;51.62;101359.63;5114712;27;19916;-82
2023/08/24 07:21:06;;;;;;;;;;;;;;;28.74;51.47;101364.06;5121020;27;20297;-82
2023/08/24 07:23:31;;;;;;;;;;;;;;;28.73;51.56;101362.31;5117899;27;20388;-83
2023/08/24 07:25:57;;;;;;;;;;;;;;;28.75;51.74;101362.31;5113348;27;19922;-82
2023/08/24 07:28:26;;;;;;;;;;;;;;;28.74;51.63;101363.19;5126520;27;19958;-82
2023/08/24 07:30:55;;;;;;;;;;;;;;;28.73;51.45;101364.13;5094223;27;19915;-83
2023/08/24 07:33:21;;;;;;;;;;;;;;;28.72;51.64;101360.50;5107419;27;20402;-82
2023/08/24 07:35:47;;;;;;;;;;;;;;;28.73;51.47;101361.44;5128218;27;19915;-82
2023/08/24 07:38:12;;;;;;;;;;;;;;;28.72;51.50;101359.63;5123481;27;20346;-81
2023/08/24 07:40:37;;;;;;;;;;;;;;;28.72;51.59;101357.84;5123602;27;19927;-83
2023/08/24 07:43:04;;;;;;;;;;;;;;;28.71;51.21;101358.75;5119808;27;20403;-82
2023/08/24 07:45:30;;;;;;;;;;;;;;;28.73;51.74;101350.69;5109290;27;20564;-82
2023/08/24 07:47:55;;;;;;;;;;;;;;;28.74;51.45;101357.81;5113400;27;19935;-83
2023/08/24 07:50:22;;;;;;;;;;;;;;;28.71;51.72;101348.00;5123229;27;19950;-83
2023/08/24 07:52:48;;;;;;;;;;;;;;;28.72;51.73;101355.13;5129784;27;20377;-83
2023/08/24 07:55:14;;;;;;;;;;;;;;;28.74;51.58;101345.25;5095219;27;19938;-83
2023/08/24 07:57:39;;;;;;;;;;;;;;;28.75;51.68;101349.75;5126956;27;20344;-83
2023/08/24 08:00:05;;;;;;;;;;;;;;;28.75;51.21;101348.88;5103640;27;20407;-83
2023/08/24 08:02:32;;;;;;;;;;;;;;;28.74;51.30;101345.25;5105612;27;19916;-83
2023/08/24 08:04:58;;;;;;;;;;;;;;;28.73;51.73;101346.19;5119338;27;19923;-82
2023/08/24 08:07:24;;;;;;;;;;;;;;;28.75;51.48;101351.56;5113719;27;19920;-82
2023/08/24 08:09:50;;;;;;;;;;;;;;;28.78;51.54;101351.50;5137070;27;20002;-83
2023/08/24 08:12:15;;;;;;;;;;;;;;;28.67;54.31;101354.31;5122513;27;20074;-89
2023/08/24 08:14:41;;;;;;;;;;;;;;;28.72;54.07;101348.88;5109272;27;19922;-82
2023/08/24 08:17:06;;;;;;;;;;;;;;;28.89;53.13;101351.38;5127517;27;20308;-82
2023/08/24 08:19:32;;;;;;;;;;;;;;;28.68;52.86;101340.00;5095977;27;19915;-83
2023/08/24 08:21:57;;;;;;;;;;;;;;;28.63;52.15;101341.81;5104503;27;19923;-82
2023/08/24 08:24:23;;;;;;;;;;;;;;;28.78;50.71;101343.44;5117601;27;20354;-83
2023/08/24 08:26:48;;;;;;;;;;;;;;;28.92;49.46;101345.97;5129282;27;20349;-83
2023/08/24 08:29:13;;;;;;;;;;;;;;;29.15;48.85;101337.63;5127509;27;19972;-82
2023/08/24 08:31:41;;;;;;;;;;;;;;;28.99;48.49;101343.16;5131415;27;20436;-85
2023/08/24 08:34:06;;;;;;;;;;;;;;;29.06;47.95;101333.19;5130898;27;19916;-82
2023/08/24 08:36:34;;;;;;;;;;;;;;;29.26;47.25;101341.03;5118105;27;19930;-83
2023/08/24 08:38:59;;;;;;;;;;;;;;;29.22;47.00;101342.00;5128927;27;19972;-83
2023/08/24 08:41:26;;;;;;;;;;;;;;;29.33;46.54;101337.34;5127469;27;19915;-83
2023/08/24 08:43:52;;;;;;;;;;;;;;;29.36;46.42;101337.31;5107635;27;19970;-82
2023/08/24 08:46:19;;;;;;;;;;;;;;;29.31;46.31;101333.78;5120485;27;19942;-82
2023/08/24 08:48:47;;;;;;;;;;;;;;;29.41;45.79;101331.84;5109788;27;19924;-83
2023/08/24 08:51:13;;;;;;;;;;;;;;;29.35;46.00;101337.31;5117495;27;20378;-82
2023/08/24 08:53:39;;;;;;;;;;;;;;;29.41;45.48;101339.94;5109026;27;20450;-81
2023/08/24 08:56:04;;;;;;;;;;;;;;;29.47;45.41;101329.06;5101798;28;19916;-82
2023/08/24 08:58:31;;;;;;;;;;;;;;;29.61;44.99;101336.91;5107161;28;20412;-83
2023/08/24 09:00:59;;;;;;;;;;;;;;;29.61;44.72;101335.13;5092546;28;19912;-82
2023/08/24 09:03:26;;;;;;;;;;;;;;;29.64;44.54;101337.75;5125399;27;19916;-84
2023/08/24 09:05:51;;;;;;;;;;;;;;;29.57;44.58;101343.25;5109689;28;19949;-82
2023/08/24 09:08:17;;;;;;;;;;;;;;;29.41;44.99;101348.00;5108863;28;20367;-82
2023/08/24 09:10:44;;;;;;;;;;;;;;;29.60;44.35;101344.09;5108598;28;20445;-83
2023/08/24 09:13:09;;;;;;;;;;;;;;;29.51;44.35;101338.88;5112827;28;19915;-84
2023/08/24 09:15:36;;;;;;;;;;;;;;;29.57;44.00;101338.78;5110081;28;19922;-83
2023/08/24 09:18:02;;;;;;;;;;;;;;;29.59;43.79;101334.25;5105217;28;19974;-84
2023/08/24 09:20:28;;;;;;;;;;;;;;;29.56;43.71;101315.47;5095879;27;20393;-83
2023/08/24 09:22:56;;;;;;;;;;;;;;;29.73;43.43;101342.13;5117303;27;19916;-83
2023/08/24 09:25:22;;;;;;;;;;;;;;;29.67;43.60;101338.63;5125424;27;19930;-83
2023/08/24 09:27:55;;;;;;;;;;;;;;;29.74;43.37;101343.94;5099438;28;20055;-83
2023/08/24 09:30:21;;;;;;;;;;;;;;;29.72;43.45;101337.69;5111597;27;19915;-82
2023/08/24 09:32:46;;;;;;;;;;;;;;;29.62;43.26;101325.25;5112259;27;20007;-81
2023/08/24 09:35:12;;;;;;;;;;;;;;;29.65;43.43;101327.88;5092890;28;20381;-83
2023/08/24 09:37:38;;;;;;;;;;;;;;;29.66;43.49;101334.19;5102322;28;19916;-81
2023/08/24 09:40:08;;;;;;;;;;;;;;;29.68;43.54;101330.53;5106823;27;19915;-83
2023/08/24 09:42:40;;;;;;;;;;;;;;;29.75;43.19;101326.84;5102017;28;19979;-82
2023/08/24 09:45:06;;;;;;;;;;;;;;;29.69;43.47;101326.91;5112959;27;19959;-82
2023/08/24 09:47:31;;;;;;;;;;;;;;;29.78;43.18;101323.22;5113491;27;19919;-82
2023/08/24 09:49:57;;;;;;;;;;;;;;;29.64;44.25;101318.03;5083918;28;20021;-83
2023/08/24 09:52:22;;;;;;;;;;;;;;;29.75;43.87;101318.78;5109874;27;20301;-84
2023/08/24 09:54:48;;;;;;;;;;;;;;;29.78;43.67;101323.22;5110217;27;20321;-85
2023/08/24 09:57:13;;;;;;;;;;;;;;;29.91;43.36;101327.50;5083392;27;19915;-84
2023/08/24 09:59:39;;;;;;;;;;;;;;;29.74;43.71;101330.47;5080085;28;19949;-84
2023/08/24 10:02:05;;;;;;;;;;;;;;;29.81;43.18;101323.16;5085589;28;20430;-84
2023/08/24 10:04:33;;;;;;;;;;;;;;;29.82;43.33;101323.16;5096436;28;20420;-83
2023/08/24 10:07:10;;;;;;;;;;;;;;;29.86;43.30;101312.31;5111555;28;20389;-84
2023/08/24 10:09:40;;;;;;;;;;;;;;;29.83;43.18;101313.28;5094714;28;19912;-84
2023/08/24 10:12:05;;;;;;;;;;;;;;;29.76;43.25;101311.56;5111072;27;19930;-84
2023/08/24 10:14:41;;;;;;;;;;;;;;;29.84;42.68;101309.66;5107832;28;20010;-86
2023/08/24 10:17:07;;;;;;;;;;;;;;;29.78;43.17;101312.44;5123813;28;19919;-86
2023/08/24 10:19:33;;;;;;;;;;;;;;;29.89;42.68;101310.47;5101850;28;19912;-85
2023/08/24 10:21:58;;;;;;;;;;;;;;;29.89;42.62;101307.78;5079445;28;20415;-84
2023/08/24 10:24:24;;;;;;;;;;;;;;;29.97;42.35;101307.63;5078589;28;19912;-84
2023/08/24 10:26:50;;;;;;;;;;;;;;;29.88;42.46;101305.97;5111503;27;19991;-85
2023/08/24 10:29:19;;;;;;;;;;;;;;;29.94;42.41;101308.56;5068046;28;19969;-84
2023/08/24 10:31:44;;;;;;;;;;;;;;;29.88;42.14;101305.97;5070884;28;19981;-84
2023/08/24 10:34:11;;;;;;;;;;;;;;;29.86;42.50;101302.44;5095122;28;19916;-86
2023/08/24 10:36:40;;;;;;;;;;;;;;;29.95;42.07;101296.91;5097976;28;19958;-83
2023/08/24 10:39:05;;;;;;;;;;;;;;;29.88;42.40;101303.28;5099132;28;19923;-84
2023/08/24 10:41:47;;;;;;;;;;;;;;;30.08;42.16;101291.25;5113610;27;19916;-84
2023/08/24 10:44:19;;;;;;;;;;;;;;;29.99;42.32;101295.00;5109496;27;19920;-84
2023/08/24 10:46:45;;;;;;;;;;;;;;;30.07;42.24;101278.72;5104308;28;20002;-85
2023/08/24 10:49:10;;;;;;;;;;;;;;;30.09;42.22;101284.97;5113135;28;20011;-84
2023/08/24 10:51:45;;;;;;;;;;;;;;;30.14;42.34;101286.69;5123564;27;19966;-83
2023/08/24 10:54:11;;;;;;;;;;;;;;;30.16;42.33;101287.53;5132205;28;19912;-84
2023/08/24 10:56:40;;;;;;;;;;;;;;;30.09;42.40;101285.84;5130992;28;19915;-84
2023/08/24 10:59:12;;;;;;;;;;;;;;;29.99;42.61;101279.78;5132976;27;20466;-83
2023/08/24 11:01:38;;;;;;;;;;;;;;;30.01;42.53;101279.72;5131835;27;19915;-86
2023/08/24 11:04:04;;;;;;;;;;;;;;;30.04;42.56;101280.56;5110925;28;19919;-84
2023/08/24 11:06:32;;;;;;;;;;;;;;;29.96;42.64;101266.34;5123916;27;19977;-86
2023/08/24 11:09:13;;;;;;;;;;;;;;;30.10;42.62;101274.19;5116369;27;19915;-83
2023/08/24 11:11:39;;;;;;;;;;;;;;;30.13;42.33;101266.03;5114146;27;20005;-84
2023/08/24 11:14:14;;;;;;;;;;;;;;;30.18;42.06;101266.84;5120633;27;19950;-85
2023/08/24 11:16:46;;;;;;;;;;;;;;;30.16;42.00;101267.75;5122981;27;20396;-84
2023/08/24 11:19:18;;;;;;;;;;;;;;;30.24;42.11;101271.19;5122948;27;19912;-84
2023/08/24 11:21:48;;;;;;;;;;;;;;;30.19;41.81;101262.34;5128644;27;19912;-85
2023/08/24 11:24:14;;;;;;;;;;;;;;;30.23;41.79;101259.53;5122573;27;19916;-84
2023/08/24 11:26:43;;;;;;;;;;;;;;;30.21;41.76;101260.50;5121228;27;19922;-84
2023/08/24 11:29:11;;;;;;;;;;;;;;;30.34;41.60;101256.66;5121720;27;19946;-84
2023/08/24 11:31:37;;;;;;;;;;;;;;;30.28;41.54;101256.75;5095870;28;19911;-84
2023/08/24 11:34:04;;;;;;;;;;;;;;;30.33;41.42;101257.59;5130155;27;20281;-85
2023/08/24 11:36:30;;;;;;;;;;;;;;;30.20;41.49;101251.50;5117799;27;19918;-85
2023/08/24 11:38:59;;;;;;;;;;;;;;;30.38;41.43;101257.50;5118552;27;19922;-87
2023/08/24 11:41:25;;;;;;;;;;;;;;;30.28;41.26;101251.38;5128416;27;19916;-85
2023/08/24 11:43:58;;;;;;;;;;;;;;;30.25;41.47;101254.13;5119433;27;20000;-86
2023/08/24 11:46:27;;;;;;;;;;;;;;;30.27;41.29;101254.06;5110302;27;19916;-87
2023/08/24 11:48:52;;;;;;;;;;;;;;;30.21;41.49;101255.09;5114822;27;19920;-85
2023/08/24 11:51:18;;;;;;;;;;;;;;;30.27;41.49;101257.69;5119802;27;20002;-84
2023/08/24 11:53:44;;;;;;;;;;;;;;;30.18;41.62;101256.06;5123479;27;20335;-86
2023/08/24 11:56:12;;;;;;;;;;;;;;;30.26;41.50;101242.41;5123468;27;19919;-85
2023/08/24 11:58:41;;;;;;;;;;;;;;;30.41;41.07;101242.13;5126465;27;19920;-85
2023/08/24 12:01:11;;;;;;;;;;;;;;;30.40;41.20;101234.09;5129783;27;19920;-84
2023/08/24 12:03:37;;;;;;;;;;;;;;;30.33;41.08;101236.03;5120848;27;19919;-84
2023/08/24 12:06:06;;;;;;;;;;;;;;;30.30;41.13;101233.41;5138054;27;19922;-84
2023/08/24 12:08:31;;;;;;;;;;;;;;;30.40;40.84;101228.72;5103208;27;19924;-86
2023/08/24 12:10:58;;;;;;;;;;;;;;;30.40;40.67;101228.72;5114126;27;19919;-84
2023/08/24 12:13:23;;;;;;;;;;;;;;;30.42;40.73;101225.06;5124855;27;19923;-85
2023/08/24 12:15:50;;;;;;;;;;;;;;;30.47;40.61;101219.56;5134772;27;19922;-84
2023/08/24 12:18:16;;;;;;;;;;;;;;;30.50;40.65;101207.81;5105434;27;20026;-83
2023/08/24 12:20:41;;;;;;;;;;;;;;;30.36;40.73;101214.41;5127719;27;19959;-85
2023/08/24 12:23:07;;;;;;;;;;;;;;;30.49;40.56;101216.84;5111063;28;20353;-86
2023/08/24 12:25:36;;;;;;;;;;;;;;;30.46;40.48;101223.19;5123590;27;20484;-86
2023/08/24 12:28:14;;;;;;;;;;;;;;;30.44;40.53;101223.22;5115273;27;19953;-87
2023/08/24 12:30:44;;;;;;;;;;;;;;;30.44;40.52;101217.81;5109400;27;19923;-85
2023/08/24 12:33:09;;;;;;;;;;;;;;;30.43;40.54;101216.03;5094240;27;19926;-86